Time;durP1;ratioP1;P1;durP2;ratioP2;P2;SDS_P1;SDS_P2;PMS_P1;PMS_P2;Temp;Humidity;BMP_temperature;BMP_pressure;BME280_temperature;BME280_humidity;BME280_pressure;Samples;Min_cycle;Max_cycle;Signal;HPM_P1;HPM_P2
2023/01/02 02:14:44;;;;;;;1999.90;999.90;;;;;;;;;;4953049;28;20751;-70
2023/01/02 02:17:32;;;;;;;1999.90;999.90;;;;;;;;;;4955474;29;20252;-69
2023/01/02 02:20:33;;;;;;;1999.90;999.90;;;;;;;;;;4954503;29;20213;-66
2023/01/02 02:23:45;;;;;;;1999.90;999.90;;;;;;;;;;4935612;29;20256;-69
2023/01/02 02:26:41;;;;;;;1999.90;999.90;;;;;;;;;;4912864;28;21449;-69
2023/01/02 02:29:35;;;;;;;1999.90;999.90;;;;;;;;;;4953540;29;20215;-69
2023/01/02 02:32:24;;;;;;;1999.90;999.90;;;;;;;;;;4951062;29;20949;-69
2023/01/02 02:35:13;;;;;;;1999.90;999.90;;;;;;;;;;4935783;29;20212;-69
2023/01/02 02:38:01;;;;;;;1999.90;999.90;;;;;;;;;;4935944;29;20307;-69
2023/01/02 02:40:49;;;;;;;1999.90;999.90;;;;;;;;;;4935650;29;20213;-69
2023/01/02 02:43:40;;;;;;;1999.90;999.90;;;;;;;;;;4935759;29;20591;-69
2023/01/02 02:46:29;;;;;;;1999.90;999.90;;;;;;;;;;4953825;29;20211;-70
2023/01/02 02:49:20;;;;;;;1999.90;999.90;;;;;;;;;;4954785;29;20713;-69
2023/01/02 02:52:07;;;;;;;1999.90;999.90;;;;;;;;;;4954754;29;20729;-70
2023/01/02 02:54:55;;;;;;;1999.90;999.90;;;;;;;;;;4954273;29;20268;-69
2023/01/02 02:57:42;;;;;;;1999.90;999.90;;;;;;;;;;4954934;29;20585;-70
2023/01/02 03:00:27;;;;;;;1999.90;999.90;;;;;;;;;;4954644;29;20255;-69
2023/01/02 03:03:16;;;;;;;1999.90;999.90;;;;;;;;;;4954257;29;20746;-70
2023/01/02 03:06:08;;;;;;;1999.90;999.90;;;;;;;;;;4954078;29;20207;-69
2023/01/02 03:09:01;;;;;;;1999.90;999.90;;;;;;;;;;4935379;29;20227;-69
2023/01/02 03:11:48;;;;;;;1999.90;999.90;;;;;;;;;;4934882;29;20203;-69
2023/01/02 03:14:42;;;;;;;1999.90;999.90;;;;;;;;;;4935084;29;20255;-69
2023/01/02 03:17:33;;;;;;;1999.90;999.90;;;;;;;;;;4935013;29;20228;-70
2023/01/02 03:20:20;;;;;;;1999.90;999.90;;;;;;;;;;4935175;29;20251;-70
2023/01/02 03:23:08;;;;;;;1999.90;999.90;;;;;;;;;;4934825;29;20739;-69
2023/01/02 03:25:53;;;;;;;1999.90;999.90;;;;;;;;;;4934464;29;20333;-70
2023/01/02 03:28:39;;;;;;;1999.90;999.90;;;;;;;;;;4935116;29;20709;-70
2023/01/02 03:31:25;;;;;;;1999.90;999.90;;;;;;;;;;4934760;29;20209;-70
2023/01/02 03:34:12;;;;;;;1999.90;999.90;;;;;;;;;;4934873;29;20227;-69
2023/01/02 03:37:00;;;;;;;1999.90;999.90;;;;;;;;;;4934820;29;20213;-68
2023/01/02 03:39:48;;;;;;;1999.90;999.90;;;;;;;;;;4934795;29;20212;-69
2023/01/02 03:42:34;;;;;;;1999.90;999.90;;;;;;;;;;4934481;29;20606;-70
2023/01/02 03:45:22;;;;;;;1999.90;999.90;;;;;;;;;;4934782;29;20295;-69
2023/01/02 03:48:09;;;;;;;1999.90;999.90;;;;;;;;;;4934860;29;20216;-70
2023/01/02 03:50:55;;;;;;;1999.90;999.90;;;;;;;;;;4940976;29;20219;-69
2023/01/02 03:53:40;;;;;;;1999.90;999.90;;;;;;;;;;4953635;29;20223;-69
2023/01/02 03:56:32;;;;;;;1999.90;999.90;;;;;;;;;;4941358;29;20244;-68
2023/01/02 03:59:21;;;;;;;1999.90;999.90;;;;;;;;;;4934703;29;20236;-70
2023/01/02 04:02:09;;;;;;;1999.90;999.90;;;;;;;;;;4934789;29;20228;-70
2023/01/02 04:04:56;;;;;;;1999.90;999.90;;;;;;;;;;4934555;29;20217;-69
2023/01/02 04:07:46;;;;;;;1999.90;999.90;;;;;;;;;;4934747;29;20207;-69
2023/01/02 04:10:34;;;;;;;1999.90;999.90;;;;;;;;;;4941383;29;20704;-70
2023/01/02 04:13:22;;;;;;;1999.90;999.90;;;;;;;;;;4951974;28;20525;-69
2023/01/02 04:16:09;;;;;;;1999.90;999.90;;;;;;;;;;4940041;29;20354;-69
2023/01/02 04:18:55;;;;;;;1999.90;999.90;;;;;;;;;;4934580;29;20580;-69
2023/01/02 04:21:41;;;;;;;1999.90;999.90;;;;;;;;;;4935261;29;20205;-69
2023/01/02 04:24:27;;;;;;;1999.90;999.90;;;;;;;;;;4938245;29;20233;-69
2023/01/02 04:27:14;;;;;;;1999.90;999.90;;;;;;;;;;4938336;29;20212;-69
2023/01/02 04:30:00;;;;;;;1999.90;999.90;;;;;;;;;;4938362;29;20287;-70
2023/01/02 04:32:47;;;;;;;1999.90;999.90;;;;;;;;;;4938108;29;20298;-70
2023/01/02 04:35:34;;;;;;;1999.90;999.90;;;;;;;;;;4938046;29;20204;-69
2023/01/02 04:38:19;;;;;;;1999.90;999.90;;;;;;;;;;4938252;29;20207;-70
2023/01/02 04:41:04;;;;;;;1999.90;999.90;;;;;;;;;;4939106;29;20703;-69
2023/01/02 04:43:50;;;;;;;1999.90;999.90;;;;;;;;;;4937708;29;20232;-67
2023/01/02 04:46:36;;;;;;;1999.90;999.90;;;;;;;;;;4937683;29;20751;-70
2023/01/02 04:49:21;;;;;;;1999.90;999.90;;;;;;;;;;4938108;29;20216;-69
2023/01/02 04:52:06;;;;;;;1999.90;999.90;;;;;;;;;;4938008;29;20228;-70
2023/01/02 04:54:51;;;;;;;1999.90;999.90;;;;;;;;;;4937014;29;20218;-69
2023/01/02 04:57:36;;;;;;;1999.90;999.90;;;;;;;;;;4937816;29;20211;-70
2023/01/02 05:00:21;;;;;;;1999.90;999.90;;;;;;;;;;4937505;29;20220;-70
2023/01/02 05:03:08;;;;;;;1999.90;999.90;;;;;;;;;;4937265;29;20864;-71
2023/01/02 05:05:59;;;;;;;1999.90;999.90;;;;;;;;;;4937244;29;20703;-69
2023/01/02 05:08:44;;;;;;;1999.90;999.90;;;;;;;;;;4937328;29;20212;-69
2023/01/02 05:11:28;;;;;;;1999.90;999.90;;;;;;;;;;4937731;29;20221;-69
2023/01/02 05:14:13;;;;;;;1999.90;999.90;;;;;;;;;;4936903;29;20247;-68
2023/01/02 05:16:58;;;;;;;1999.90;999.90;;;;;;;;;;4937271;29;20220;-69
2023/01/02 05:19:44;;;;;;;1999.90;999.90;;;;;;;;;;4937212;29;20262;-70
2023/01/02 05:25:33;;;;;;;1999.90;999.90;;;;;;;;;;4935764;29;20451;-69
2023/01/02 05:28:19;;;;;;;1999.90;999.90;;;;;;;;;;4937121;29;20208;-69
2023/01/02 05:31:03;;;;;;;1999.90;999.90;;;;;;;;;;4937227;29;20213;-70
2023/01/02 05:33:50;;;;;;;1999.90;999.90;;;;;;;;;;4936137;29;20261;-69
2023/01/02 05:36:36;;;;;;;1999.90;999.90;;;;;;;;;;4936809;29;20249;-69
2023/01/02 05:39:21;;;;;;;1999.90;999.90;;;;;;;;;;4937110;29;20216;-69
2023/01/02 05:42:06;;;;;;;1999.90;999.90;;;;;;;;;;4936978;29;20860;-69
2023/01/02 05:44:51;;;;;;;1999.90;999.90;;;;;;;;;;4954336;29;20690;-69
2023/01/02 05:47:36;;;;;;;1999.90;999.90;;;;;;;;;;4954330;29;20281;-69
2023/01/02 05:50:21;;;;;;;1999.90;999.90;;;;;;;;;;4936730;29;20213;-70
2023/01/02 05:53:07;;;;;;;1999.90;999.90;;;;;;;;;;4936658;29;20329;-69
2023/01/02 05:55:52;;;;;;;1999.90;999.90;;;;;;;;;;4936497;29;20207;-68
2023/01/02 05:58:38;;;;;;;1999.90;999.90;;;;;;;;;;4936853;29;20361;-69
2023/01/02 06:01:24;;;;;;;1999.90;999.90;;;;;;;;;;4947503;29;20587;-68
2023/01/02 06:04:09;;;;;;;1999.90;999.90;;;;;;;;;;4939014;29;20236;-69
2023/01/02 06:06:54;;;;;;;1999.90;999.90;;;;;;;;;;4936707;29;20297;-70
2023/01/02 06:09:40;;;;;;;1999.90;999.90;;;;;;;;;;4936521;29;20353;-69
2023/01/02 06:12:25;;;;;;;1999.90;999.90;;;;;;;;;;4937253;29;20212;-69
2023/01/02 06:15:10;;;;;;;1999.90;999.90;;;;;;;;;;4946935;29;20294;-69
2023/01/02 06:17:56;;;;;;;1999.90;999.90;;;;;;;;;;4937976;29;20236;-68
2023/01/02 06:20:40;;;;;;;1999.90;999.90;;;;;;;;;;4943082;29;20220;-70
2023/01/02 06:23:25;;;;;;;1999.90;999.90;;;;;;;;;;4954945;29;20231;-67
2023/01/02 06:26:12;;;;;;;1999.90;999.90;;;;;;;;;;4939190;29;20231;-66
2023/01/02 06:28:58;;;;;;;1999.90;999.90;;;;;;;;;;4949599;29;20219;-68
2023/01/02 06:31:43;;;;;;;1999.90;999.90;;;;;;;;;;4955212;29;20336;-68
2023/01/02 06:34:27;;;;;;;1999.90;999.90;;;;;;;;;;4954713;29;20310;-70
2023/01/02 06:37:12;;;;;;;1999.90;999.90;;;;;;;;;;4955240;29;20234;-68
2023/01/02 06:39:57;;;;;;;1999.90;999.90;;;;;;;;;;4954956;29;20234;-70
2023/01/02 06:42:44;;;;;;;1999.90;999.90;;;;;;;;;;4954943;29;20748;-69
2023/01/02 06:45:29;;;;;;;1999.90;999.90;;;;;;;;;;4954016;28;20229;-70
2023/01/02 06:48:14;;;;;;;1999.90;999.90;;;;;;;;;;4954857;29;20214;-70
2023/01/02 06:51:00;;;;;;;1999.90;999.90;;;;;;;;;;4954893;29;20208;-70
2023/01/02 06:53:45;;;;;;;1999.90;999.90;;;;;;;;;;4954734;29;20629;-70
2023/01/02 06:56:30;;;;;;;1999.90;999.90;;;;;;;;;;4954691;29;20207;-69
2023/01/02 06:59:17;;;;;;;1999.90;999.90;;;;;;;;;;4954800;29;20288;-70
2023/01/02 07:02:01;;;;;;;1999.90;999.90;;;;;;;;;;4954611;29;20209;-70
2023/01/02 07:04:46;;;;;;;1999.90;999.90;;;;;;;;;;4953332;29;20405;-70
2023/01/02 07:07:31;;;;;;;1999.90;999.90;;;;;;;;;;4954594;29;20233;-70
2023/01/02 07:10:16;;;;;;;1999.90;999.90;;;;;;;;;;4954514;29;20210;-70
2023/01/02 07:13:01;;;;;;;1999.90;999.90;;;;;;;;;;4954327;28;20308;-67
2023/01/02 07:15:47;;;;;;;1999.90;999.90;;;;;;;;;;4954315;29;20218;-70
2023/01/02 07:18:32;;;;;;;1999.90;999.90;;;;;;;;;;4954133;29;20206;-70
2023/01/02 07:21:17;;;;;;;1999.90;999.90;;;;;;;;;;4954509;29;20339;-69
2023/01/02 07:24:03;;;;;;;1999.90;999.90;;;;;;;;;;4954137;29;20233;-69
2023/01/02 07:26:48;;;;;;;1999.90;999.90;;;;;;;;;;4954336;29;20206;-70
2023/01/02 07:29:32;;;;;;;1999.90;999.90;;;;;;;;;;4954157;29;20204;-70
2023/01/02 07:32:19;;;;;;;1999.90;999.90;;;;;;;;;;4954304;29;20204;-70
2023/01/02 07:35:04;;;;;;;1999.90;999.90;;;;;;;;;;4953965;29;20209;-70
2023/01/02 07:37:49;;;;;;;1999.90;999.90;;;;;;;;;;4954151;29;20216;-70
2023/01/02 07:40:34;;;;;;;1999.90;999.90;;;;;;;;;;4954114;29;20293;-70
2023/01/02 07:43:19;;;;;;;1999.90;999.90;;;;;;;;;;4953940;29;20230;-69
2023/01/02 07:46:04;;;;;;;1999.90;999.90;;;;;;;;;;4953969;29;20193;-70
2023/01/02 07:48:50;;;;;;;1999.90;999.90;;;;;;;;;;4954061;29;20211;-69
2023/01/02 07:51:35;;;;;;;1999.90;999.90;;;;;;;;;;4954040;29;20209;-69
2023/01/02 07:54:20;;;;;;;1999.90;999.90;;;;;;;;;;4953646;29;20315;-69
2023/01/02 07:57:05;;;;;;;1999.90;999.90;;;;;;;;;;4952690;29;20782;-70
2023/01/02 07:59:50;;;;;;;1999.90;999.90;;;;;;;;;;4953900;29;20215;-66
2023/01/02 08:02:35;;;;;;;1999.90;999.90;;;;;;;;;;4953439;29;20227;-68
2023/01/02 08:05:22;;;;;;;1999.90;999.90;;;;;;;;;;4953618;29;20272;-70
2023/01/02 08:08:07;;;;;;;1999.90;999.90;;;;;;;;;;4954113;29;20212;-70
2023/01/02 08:10:52;;;;;;;1999.90;999.90;;;;;;;;;;4953768;29;20344;-68
2023/01/02 08:13:37;;;;;;;1999.90;999.90;;;;;;;;;;4953220;29;20758;-70
2023/01/02 08:16:22;;;;;;;1999.90;999.90;;;;;;;;;;4949777;29;20209;-69
2023/01/02 08:19:07;;;;;;;1999.90;999.90;;;;;;;;;;4953678;29;20210;-69
2023/01/02 08:21:54;;;;;;;1999.90;999.90;;;;;;;;;;4968530;28;20217;-67
2023/01/02 08:24:39;;;;;;;1999.90;999.90;;;;;;;;;;4964705;28;20248;-70
2023/01/02 08:27:24;;;;;;;1999.90;999.90;;;;;;;;;;4934412;29;20213;-67
2023/01/02 08:30:09;;;;;;;1999.90;999.90;;;;;;;;;;4934516;29;20289;-67
2023/01/02 08:32:54;;;;;;;1999.90;999.90;;;;;;;;;;4934604;29;20345;-70
2023/01/02 08:35:39;;;;;;;1999.90;999.90;;;;;;;;;;4939864;29;20595;-70
2023/01/02 08:38:25;;;;;;;1999.90;999.90;;;;;;;;;;4953276;29;20212;-70
2023/01/02 08:41:10;;;;;;;1999.90;999.90;;;;;;;;;;4953275;29;20213;-70
2023/01/02 08:43:55;;;;;;;1999.90;999.90;;;;;;;;;;4952233;29;20485;-70
2023/01/02 08:46:40;;;;;;;1999.90;999.90;;;;;;;;;;4952769;29;20273;-70
2023/01/02 08:49:25;;;;;;;1999.90;999.90;;;;;;;;;;4952784;29;20232;-69
2023/01/02 08:52:10;;;;;;;1999.90;999.90;;;;;;;;;;4949215;29;20346;-69
2023/01/02 08:54:59;;;;;;;1999.90;999.90;;;;;;;;;;4951840;29;20342;-70
2023/01/02 08:57:44;;;;;;;1999.90;999.90;;;;;;;;;;4952386;29;20696;-69
2023/01/02 09:00:29;;;;;;;1999.90;999.90;;;;;;;;;;4952437;29;20205;-70
2023/01/02 09:03:14;;;;;;;1999.90;999.90;;;;;;;;;;4953408;29;20232;-69
2023/01/02 09:05:59;;;;;;;1999.90;999.90;;;;;;;;;;4945843;29;20209;-69
2023/01/02 09:08:44;;;;;;;1999.90;999.90;;;;;;;;;;4950780;28;20243;-69
2023/01/02 09:11:31;;;;;;;1999.90;999.90;;;;;;;;;;4952957;29;20471;-69
2023/01/02 09:14:16;;;;;;;1999.90;999.90;;;;;;;;;;4954985;28;20313;-68
2023/01/02 09:17:01;;;;;;;1999.90;999.90;;;;;;;;;;4955857;29;20253;-69
2023/01/02 09:19:47;;;;;;;1999.90;999.90;;;;;;;;;;4955844;29;20942;-68
2023/01/02 09:22:32;;;;;;;1999.90;999.90;;;;;;;;;;4949783;28;20236;-72
2023/01/02 09:25:17;;;;;;;1999.90;999.90;;;;;;;;;;4941541;29;20233;-69
2023/01/02 09:28:03;;;;;;;1999.90;999.90;;;;;;;;;;4954743;29;20290;-69
2023/01/02 09:30:48;;;;;;;1999.90;999.90;;;;;;;;;;4950789;29;20212;-71
2023/01/02 09:33:34;;;;;;;1999.90;999.90;;;;;;;;;;4950975;29;20365;-70
2023/01/02 09:36:19;;;;;;;1999.90;999.90;;;;;;;;;;4952955;29;20215;-70
2023/01/02 09:39:04;;;;;;;1999.90;999.90;;;;;;;;;;4952752;29;20292;-68
2023/01/02 09:41:50;;;;;;;1999.90;999.90;;;;;;;;;;4954026;29;20291;-69
2023/01/02 09:44:39;;;;;;;1999.90;999.90;;;;;;;;;;4954024;29;20225;-70
2023/01/02 09:47:28;;;;;;;1999.90;999.90;;;;;;;;;;4954707;29;20216;-68
2023/01/02 09:50:15;;;;;;;1999.90;999.90;;;;;;;;;;4954327;29;20301;-69
2023/01/02 09:53:00;;;;;;;1999.90;999.90;;;;;;;;;;4938213;29;20720;-69
2023/01/02 09:55:46;;;;;;;1999.90;999.90;;;;;;;;;;4945377;29;20265;-68
2023/01/02 09:58:37;;;;;;;1999.90;999.90;;;;;;;;;;4937761;29;20273;-69
2023/01/02 10:01:28;;;;;;;1999.90;999.90;;;;;;;;;;4942367;29;20220;-69
2023/01/02 10:04:17;;;;;;;1999.90;999.90;;;;;;;;;;4955338;29;20229;-69
2023/01/02 10:07:07;;;;;;;1999.90;999.90;;;;;;;;;;4936453;29;20206;-71
2023/01/02 10:09:54;;;;;;;1999.90;999.90;;;;;;;;;;4938778;29;20591;-69
2023/01/02 10:12:42;;;;;;;1999.90;999.90;;;;;;;;;;4953967;29;20329;-69
2023/01/02 10:15:29;;;;;;;1999.90;999.90;;;;;;;;;;4953173;29;20675;-71
2023/01/02 10:18:19;;;;;;;1999.90;999.90;;;;;;;;;;4953635;29;20355;-69
2023/01/02 10:21:05;;;;;;;1999.90;999.90;;;;;;;;;;4953099;29;20225;-70
2023/01/02 10:23:52;;;;;;;1999.90;999.90;;;;;;;;;;4953604;29;20225;-70
2023/01/02 10:26:37;;;;;;;1999.90;999.90;;;;;;;;;;4953169;29;20220;-70
2023/01/02 10:29:27;;;;;;;1999.90;999.90;;;;;;;;;;4940999;29;20286;-69
2023/01/02 10:32:13;;;;;;;1999.90;999.90;;;;;;;;;;4951918;29;20225;-69
2023/01/02 10:35:09;;;;;;;1999.90;999.90;;;;;;;;;;4953716;28;20213;-69
2023/01/02 10:37:56;;;;;;;1999.90;999.90;;;;;;;;;;4953964;29;20342;-70
2023/01/02 10:40:42;;;;;;;1999.90;999.90;;;;;;;;;;4953706;29;20217;-69
2023/01/02 10:43:28;;;;;;;1999.90;999.90;;;;;;;;;;4953458;29;20361;-69
2023/01/02 10:46:13;;;;;;;1999.90;999.90;;;;;;;;;;4937505;29;20945;-68
2023/01/02 10:48:58;;;;;;;1999.90;999.90;;;;;;;;;;4943202;29;20210;-68
2023/01/02 10:51:48;;;;;;;1999.90;999.90;;;;;;;;;;4951188;29;20335;-69
2023/01/02 10:54:47;;;;;;;1999.90;999.90;;;;;;;;;;4953611;29;20229;-69
2023/01/02 10:57:36;;;;;;;1999.90;999.90;;;;;;;;;;4954365;29;20220;-68
2023/01/02 11:00:25;;;;;;;1999.90;999.90;;;;;;;;;;4935649;29;20206;-70
2023/01/02 11:03:14;;;;;;;1999.90;999.90;;;;;;;;;;4940951;29;20249;-69
2023/01/02 11:06:00;;;;;;;1999.90;999.90;;;;;;;;;;4935088;29;20221;-69
2023/01/02 11:08:55;;;;;;;1999.90;999.90;;;;;;;;;;4935486;29;20220;-69
2023/01/02 11:11:47;;;;;;;1999.90;999.90;;;;;;;;;;4935409;29;20226;-70
2023/01/02 11:14:33;;;;;;;1999.90;999.90;;;;;;;;;;4949002;28;20806;-69
2023/01/02 11:17:19;;;;;;;1999.90;999.90;;;;;;;;;;4935129;29;20215;-70
2023/01/02 11:20:05;;;;;;;1999.90;999.90;;;;;;;;;;4946532;29;20716;-69
2023/01/02 11:22:50;;;;;;;1999.90;999.90;;;;;;;;;;4954080;29;20240;-69
2023/01/02 11:25:39;;;;;;;1999.90;999.90;;;;;;;;;;4953883;29;20231;-68
2023/01/02 11:28:26;;;;;;;1999.90;999.90;;;;;;;;;;4953999;28;20204;-69
2023/01/02 11:31:14;;;;;;;1999.90;999.90;;;;;;;;;;4946381;28;20746;-69
2023/01/02 11:34:07;;;;;;;1999.90;999.90;;;;;;;;;;4954211;29;20590;-69
2023/01/02 11:37:01;;;;;;;1999.90;999.90;;;;;;;;;;4952426;29;20274;-70
2023/01/02 11:39:56;;;;;;;1999.90;999.90;;;;;;;;;;4944486;29;20718;-69
2023/01/02 11:45:48;;;;;;;1999.90;999.90;;;;;;;;;;4934278;29;20297;-70
2023/01/02 11:48:34;;;;;;;1999.90;999.90;;;;;;;;;;4934836;29;20298;-71
2023/01/02 11:51:19;;;;;;;1999.90;999.90;;;;;;;;;;4934841;29;20209;-70
2023/01/02 11:54:06;;;;;;;1999.90;999.90;;;;;;;;;;4953500;29;20231;-70
2023/01/02 11:56:52;;;;;;;1999.90;999.90;;;;;;;;;;4949886;29;20230;-70
2023/01/02 11:59:40;;;;;;;1999.90;999.90;;;;;;;;;;4949585;29;20416;-68
2023/01/02 12:02:29;;;;;;;1999.90;999.90;;;;;;;;;;4950834;29;20209;-71
2023/01/02 12:05:15;;;;;;;1999.90;999.90;;;;;;;;;;4953116;29;20229;-70
2023/01/02 12:08:04;;;;;;;1999.90;999.90;;;;;;;;;;4943802;28;20218;-72
2023/01/02 12:10:53;;;;;;;1999.90;999.90;;;;;;;;;;4938066;29;20211;-72
2023/01/02 12:13:49;;;;;;;1999.90;999.90;;;;;;;;;;4937745;29;20272;-71
2023/01/02 12:16:40;;;;;;;1999.90;999.90;;;;;;;;;;4935778;29;20712;-72
2023/01/02 12:19:32;;;;;;;1999.90;999.90;;;;;;;;;;4953651;29;20214;-72
2023/01/02 12:22:27;;;;;;;1999.90;999.90;;;;;;;;;;4944814;29;20220;-70
2023/01/02 12:25:23;;;;;;;1999.90;999.90;;;;;;;;;;4933679;29;20244;-71
2023/01/02 12:28:13;;;;;;;1999.90;999.90;;;;;;;;;;4949876;29;20207;-71
2023/01/02 12:31:07;;;;;;;1999.90;999.90;;;;;;;;;;4939159;29;20206;-70
2023/01/02 12:33:56;;;;;;;1999.90;999.90;;;;;;;;;;4934411;29;20232;-72
2023/01/02 12:36:50;;;;;;;1999.90;999.90;;;;;;;;;;4939997;29;20218;-70
2023/01/02 12:39:50;;;;;;;1999.90;999.90;;;;;;;;;;4953357;29;20342;-70
2023/01/02 12:42:42;;;;;;;1999.90;999.90;;;;;;;;;;4939666;29;20253;-70
2023/01/02 12:45:30;;;;;;;1999.90;999.90;;;;;;;;;;4937616;29;20221;-72
2023/01/02 12:48:23;;;;;;;1999.90;999.90;;;;;;;;;;4940104;29;20210;-70
2023/01/02 12:51:13;;;;;;;1999.90;999.90;;;;;;;;;;4943347;29;20214;-70
2023/01/02 12:54:05;;;;;;;1999.90;999.90;;;;;;;;;;4941732;29;20234;-70
2023/01/02 12:56:53;;;;;;;1999.90;999.90;;;;;;;;;;4945771;29;20215;-69
2023/01/02 12:59:47;;;;;;;1999.90;999.90;;;;;;;;;;4937820;29;20202;-68
2023/01/02 13:02:40;;;;;;;1999.90;999.90;;;;;;;;;;4938329;29;20708;-71
2023/01/02 13:05:28;;;;;;;1999.90;999.90;;;;;;;;;;4936968;29;20235;-71
2023/01/02 13:08:18;;;;;;;1999.90;999.90;;;;;;;;;;4942003;29;20210;-69
2023/01/02 13:11:05;;;;;;;1999.90;999.90;;;;;;;;;;4938482;29;20267;-71
2023/01/02 13:13:51;;;;;;;1999.90;999.90;;;;;;;;;;4937228;29;20238;-71
2023/01/02 13:16:36;;;;;;;1999.90;999.90;;;;;;;;;;4943634;28;20263;-69
2023/01/02 13:19:29;;;;;;;1999.90;999.90;;;;;;;;;;4955005;29;20694;-71
2023/01/02 13:22:20;;;;;;;1999.90;999.90;;;;;;;;;;4955271;29;20221;-69
2023/01/02 13:25:12;;;;;;;1999.90;999.90;;;;;;;;;;4951085;29;20716;-71
2023/01/02 13:27:58;;;;;;;1999.90;999.90;;;;;;;;;;4953704;29;20213;-72
2023/01/02 13:30:43;;;;;;;1999.90;999.90;;;;;;;;;;4952713;28;20209;-71
2023/01/02 13:33:32;;;;;;;1999.90;999.90;;;;;;;;;;4956102;29;20272;-70
2023/01/02 13:36:21;;;;;;;1999.90;999.90;;;;;;;;;;4956055;29;20330;-71
2023/01/02 13:39:14;;;;;;;1999.90;999.90;;;;;;;;;;4955008;29;20413;-70
2023/01/02 13:45:09;;;;;;;1999.90;999.90;;;;;;;;;;4955579;29;20216;-70
2023/01/02 13:47:55;;;;;;;1999.90;999.90;;;;;;;;;;4955921;29;20225;-70
2023/01/02 13:50:40;;;;;;;1999.90;999.90;;;;;;;;;;4955641;29;20204;-70
2023/01/02 13:53:28;;;;;;;1999.90;999.90;;;;;;;;;;4955450;28;20595;-70
2023/01/02 13:56:14;;;;;;;1999.90;999.90;;;;;;;;;;4955202;29;20704;-69
2023/01/02 13:59:01;;;;;;;1999.90;999.90;;;;;;;;;;4955485;29;20192;-70
2023/01/02 14:02:04;;;;;;;1999.90;999.90;;;;;;;;;;4955498;29;20204;-69
2023/01/02 14:04:49;;;;;;;1999.90;999.90;;;;;;;;;;4955030;29;20225;-70
2023/01/02 14:07:55;;;;;;;1999.90;999.90;;;;;;;;;;4955563;29;20623;-70
2023/01/02 14:10:41;;;;;;;1999.90;999.90;;;;;;;;;;4955154;29;20614;-68
2023/01/02 14:13:34;;;;;;;1999.90;999.90;;;;;;;;;;4954894;29;20236;-69
2023/01/02 14:16:27;;;;;;;1999.90;999.90;;;;;;;;;;4955363;29;20201;-69
2023/01/02 14:19:18;;;;;;;1999.90;999.90;;;;;;;;;;4948767;29;20208;-70
2023/01/02 14:22:05;;;;;;;1999.90;999.90;;;;;;;;;;4953609;29;20229;-70
2023/01/02 14:24:51;;;;;;;1999.90;999.90;;;;;;;;;;4954707;29;20867;-70
2023/01/02 14:27:36;;;;;;;1999.90;999.90;;;;;;;;;;4953561;29;20209;-69
2023/01/02 14:30:23;;;;;;;1999.90;999.90;;;;;;;;;;4951989;29;20580;-69
2023/01/02 14:33:10;;;;;;;1999.90;999.90;;;;;;;;;;4954910;29;20224;-69
2023/01/02 14:35:57;;;;;;;1999.90;999.90;;;;;;;;;;4935687;29;20269;-69
2023/01/02 14:38:43;;;;;;;1999.90;999.90;;;;;;;;;;4935863;29;20285;-69
2023/01/02 14:44:59;;;;;;;1999.90;999.90;;;;;;;;;;4935108;29;20226;-69
2023/01/02 14:47:47;;;;;;;1999.90;999.90;;;;;;;;;;4957160;28;20274;-70
2023/01/02 14:50:35;;;;;;;1999.90;999.90;;;;;;;;;;4951963;29;20699;-69
2023/01/02 14:53:23;;;;;;;1999.90;999.90;;;;;;;;;;4955700;28;20232;-69
2023/01/02 14:56:11;;;;;;;1999.90;999.90;;;;;;;;;;4954448;29;20205;-70
2023/01/02 14:58:57;;;;;;;1999.90;999.90;;;;;;;;;;4954392;29;20204;-69
2023/01/02 15:01:44;;;;;;;1999.90;999.90;;;;;;;;;;4954820;29;20740;-69
2023/01/02 15:04:37;;;;;;;1999.90;999.90;;;;;;;;;;4954233;29;20727;-69
2023/01/02 15:07:26;;;;;;;1999.90;999.90;;;;;;;;;;4954301;29;20201;-70
2023/01/02 15:10:12;;;;;;;1999.90;999.90;;;;;;;;;;4954498;29;20301;-69
2023/01/02 15:13:06;;;;;;;1999.90;999.90;;;;;;;;;;4962408;28;20242;-69
2023/01/02 15:15:52;;;;;;;1999.90;999.90;;;;;;;;;;4968496;28;20204;-68
2023/01/02 15:18:38;;;;;;;1999.90;999.90;;;;;;;;;;4973498;28;20211;-69
2023/01/02 15:21:25;;;;;;;1999.90;999.90;;;;;;;;;;4973308;28;20579;-69
2023/01/02 15:24:16;;;;;;;1999.90;999.90;;;;;;;;;;4973006;28;20236;-69
2023/01/02 15:27:11;;;;;;;1999.90;999.90;;;;;;;;;;4973283;28;20228;-69
2023/01/02 15:29:57;;;;;;;1999.90;999.90;;;;;;;;;;4962659;28;20224;-69
2023/01/02 15:32:46;;;;;;;1999.90;999.90;;;;;;;;;;4953788;29;20236;-69
2023/01/02 15:35:34;;;;;;;1999.90;999.90;;;;;;;;;;4955199;28;20205;-69
2023/01/02 15:38:20;;;;;;;1999.90;999.90;;;;;;;;;;4973477;28;20718;-70
2023/01/02 15:41:06;;;;;;;1999.90;999.90;;;;;;;;;;4973245;28;20695;-70
2023/01/02 15:46:56;;;;;;;1999.90;999.90;;;;;;;;;;4957951;28;20778;-69
2023/01/02 15:49:43;;;;;;;1999.90;999.90;;;;;;;;;;4953199;29;20425;-69
2023/01/02 15:52:29;;;;;;;1999.90;999.90;;;;;;;;;;4953863;29;20261;-69
2023/01/02 15:55:16;;;;;;;1999.90;999.90;;;;;;;;;;4953373;29;20197;-70
2023/01/02 15:58:12;;;;;;;1999.90;999.90;;;;;;;;;;4954033;29;20668;-69
2023/01/02 16:01:10;;;;;;;1999.90;999.90;;;;;;;;;;4953922;29;20209;-69
2023/01/02 16:03:56;;;;;;;1999.90;999.90;;;;;;;;;;4953630;29;20263;-69
2023/01/02 16:06:41;;;;;;;1999.90;999.90;;;;;;;;;;4965869;28;20641;-70
2023/01/02 16:09:28;;;;;;;1999.90;999.90;;;;;;;;;;4972886;28;20320;-70
2023/01/02 16:12:18;;;;;;;1999.90;999.90;;;;;;;;;;4972239;28;20247;-70
2023/01/02 16:15:05;;;;;;;1999.90;999.90;;;;;;;;;;4934203;29;20210;-70
2023/01/02 16:17:50;;;;;;;1999.90;999.90;;;;;;;;;;4935657;29;20213;-70
2023/01/02 16:20:35;;;;;;;1999.90;999.90;;;;;;;;;;4951581;29;20228;-69
2023/01/02 16:23:21;;;;;;;1999.90;999.90;;;;;;;;;;4946413;29;20232;-69
2023/01/02 16:26:06;;;;;;;1999.90;999.90;;;;;;;;;;4937882;29;20769;-70
2023/01/02 16:28:51;;;;;;;1999.90;999.90;;;;;;;;;;4953363;29;20213;-70
2023/01/02 16:31:51;;;;;;;1999.90;999.90;;;;;;;;;;4938100;29;20213;-71
2023/01/02 16:34:37;;;;;;;1999.90;999.90;;;;;;;;;;4937479;29;20591;-70
2023/01/02 16:37:45;;;;;;;1999.90;999.90;;;;;;;;;;4937586;29;20209;-70
2023/01/02 16:40:51;;;;;;;1999.90;999.90;;;;;;;;;;4938037;29;20281;-69
2023/01/02 16:43:36;;;;;;;1999.90;999.90;;;;;;;;;;4937397;29;20284;-69
2023/01/02 16:46:20;;;;;;;1999.90;999.90;;;;;;;;;;4937145;29;20369;-69
2023/01/02 16:49:07;;;;;;;1999.90;999.90;;;;;;;;;;4937616;29;20228;-70
2023/01/02 16:51:53;;;;;;;1999.90;999.90;;;;;;;;;;4937604;29;20217;-70
2023/01/02 16:54:38;;;;;;;1999.90;999.90;;;;;;;;;;4937255;29;20224;-69
2023/01/02 16:57:23;;;;;;;1999.90;999.90;;;;;;;;;;4937985;29;20221;-71
2023/01/02 17:00:08;;;;;;;1999.90;999.90;;;;;;;;;;4937643;29;20244;-70
2023/01/02 17:02:53;;;;;;;1999.90;999.90;;;;;;;;;;4938081;28;20230;-71
2023/01/02 17:05:41;;;;;;;1999.90;999.90;;;;;;;;;;4954427;29;20639;-70
2023/01/02 17:08:26;;;;;;;1999.90;999.90;;;;;;;;;;4956548;29;20212;-70
2023/01/02 17:11:12;;;;;;;1999.90;999.90;;;;;;;;;;4953756;29;20208;-71
2023/01/02 17:13:59;;;;;;;1999.90;999.90;;;;;;;;;;4937348;29;20233;-71
2023/01/02 17:16:44;;;;;;;1999.90;999.90;;;;;;;;;;4944407;29;20204;-70
2023/01/02 17:19:29;;;;;;;1999.90;999.90;;;;;;;;;;4956783;29;20577;-71
2023/01/02 17:22:16;;;;;;;1999.90;999.90;;;;;;;;;;4944148;29;20288;-69
2023/01/02 17:25:00;;;;;;;1999.90;999.90;;;;;;;;;;4936971;29;20700;-70
2023/01/02 17:27:46;;;;;;;1999.90;999.90;;;;;;;;;;4938577;29;20209;-69
2023/01/02 17:30:31;;;;;;;1999.90;999.90;;;;;;;;;;4939890;29;20434;-69
2023/01/02 17:33:16;;;;;;;1999.90;999.90;;;;;;;;;;4955977;29;20272;-71
2023/01/02 17:36:01;;;;;;;1999.90;999.90;;;;;;;;;;4950271;29;20205;-70
2023/01/02 17:38:47;;;;;;;1999.90;999.90;;;;;;;;;;4935819;29;20217;-70
2023/01/02 17:41:32;;;;;;;1999.90;999.90;;;;;;;;;;4945415;29;20266;-71
2023/01/02 17:44:17;;;;;;;1999.90;999.90;;;;;;;;;;4951499;29;20236;-68
2023/01/02 17:47:02;;;;;;;1999.90;999.90;;;;;;;;;;4951209;29;20288;-69
2023/01/02 17:49:47;;;;;;;1999.90;999.90;;;;;;;;;;4952364;29;20216;-70
2023/01/02 17:52:32;;;;;;;1999.90;999.90;;;;;;;;;;4938873;29;20229;-69
2023/01/02 17:55:18;;;;;;;1999.90;999.90;;;;;;;;;;4936570;29;20213;-70
2023/01/02 17:58:04;;;;;;;1999.90;999.90;;;;;;;;;;4936763;29;20333;-67
2023/01/02 18:00:49;;;;;;;1999.90;999.90;;;;;;;;;;4936702;29;20265;-69
2023/01/02 18:03:34;;;;;;;1999.90;999.90;;;;;;;;;;4936623;29;20233;-69